METAR Data
IDs: Format: Raw Decoded Include TAF

Data at: 2351 UTC 24 Apr 2019

METAR for:KHNR (Harlan Muni, IA, US)
Text:KHNR 242335Z AUTO 00000G10KT 10SM CLR 23/M00 A2976 RMK AO2
Temperature: 23.0°C ( 73°F)
Dewpoint: 0.0°C ( 32°F) [RH = 22%]
Pressure (altimeter):29.76 inches Hg (1007.9 mb)
Winds:calm
Visibility:10 or more sm (16+ km)
Ceiling:at least 12,000 feet AGL
Clouds:sky clear below 12,000 feet AGL
QC Flag:automated observation with no human augmentation